Time;durP1;ratioP1;P1;durP2;ratioP2;P2;SDS_P1;SDS_P2;PMS_P1;PMS_P2;Temp;Humidity;BMP_temperature;BMP_pressure;BME280_temperature;BME280_humidity;BME280_pressure;Samples;Min_cycle;Max_cycle;Signal;HPM_P1;HPM_P2
2022/11/24 00:01:17;;;;;;;10.32;1.83;;;18.20;1.00;;;;;;4841293;29;20122;-32
2022/11/24 00:03:46;;;;;;;6.20;2.25;;;18.20;1.00;;;;;;4840807;29;20046;-32
2022/11/24 00:06:15;;;;;;;8.68;1.83;;;18.10;1.00;;;;;;4841380;29;20042;-32
2022/11/24 00:08:44;;;;;;;6.80;1.73;;;18.10;1.00;;;;;;4828810;29;20050;-32
2022/11/24 00:11:13;;;;;;;5.72;1.50;;;18.10;1.00;;;;;;4824932;29;20074;-32
2022/11/24 00:13:40;;;;;;;3.25;0.98;;;18.00;1.00;;;;;;4826370;29;20131;-32
2022/11/24 00:16:14;;;;;;;9.93;2.45;;;18.00;1.00;;;;;;4826552;29;20095;-32
2022/11/24 00:18:43;;;;;;;6.53;2.08;;;18.00;1.00;;;;;;4826596;29;20065;-32
2022/11/24 00:21:11;;;;;;;4.38;1.23;;;18.00;1.00;;;;;;4810102;29;20482;-32
2022/11/24 00:23:38;;;;;;;6.80;1.48;;;17.90;1.00;;;;;;4826177;29;20099;-32
2022/11/24 00:26:04;;;;;;;8.73;1.33;;;17.90;1.00;;;;;;4826001;29;20039;-33
2022/11/24 00:28:32;;;;;;;3.10;1.42;;;17.90;1.00;;;;;;4826340;29;20074;-33
2022/11/24 00:31:00;;;;;;;6.22;1.60;;;17.90;1.00;;;;;;4826216;29;20498;-33
2022/11/24 00:33:27;;;;;;;4.90;1.15;;;17.90;1.00;;;;;;4825878;29;20050;-33
2022/11/24 00:35:58;;;;;;;6.15;1.60;;;17.90;1.00;;;;;;4826174;29;20077;-33
2022/11/24 00:38:25;;;;;;;6.50;1.80;;;17.80;1.00;;;;;;4826018;29;20070;-33
2022/11/24 00:40:52;;;;;;;7.90;1.85;;;17.80;1.00;;;;;;4825981;29;20050;-33
2022/11/24 00:43:19;;;;;;;5.97;2.17;;;17.80;1.00;;;;;;4825796;29;20572;-33
2022/11/24 00:45:46;;;;;;;4.05;1.13;;;17.80;1.00;;;;;;4825833;29;20051;-33
2022/11/24 00:48:13;;;;;;;7.32;1.30;;;17.80;1.00;;;;;;4825886;29;20053;-32
2022/11/24 00:50:39;;;;;;;6.38;1.50;;;17.80;1.00;;;;;;4825798;29;20670;-32
2022/11/24 00:53:06;;;;;;;4.05;1.40;;;17.70;1.00;;;;;;4825463;29;20406;-32
2022/11/24 00:55:33;;;;;;;3.85;1.98;;;17.80;1.00;;;;;;4825798;29;20456;-32
2022/11/24 00:58:00;;;;;;;7.10;1.65;;;17.70;1.00;;;;;;4825814;29;20074;-32
2022/11/24 01:00:27;;;;;;;8.15;1.33;;;17.70;1.00;;;;;;4825656;29;20159;-33
2022/11/24 01:02:53;;;;;;;3.85;2.10;;;17.70;1.00;;;;;;4825472;29;20082;-33
2022/11/24 01:05:20;;;;;;;5.93;1.77;;;17.70;1.00;;;;;;4825497;29;20051;-33
2022/11/24 01:07:47;;;;;;;4.63;1.40;;;17.70;1.00;;;;;;4825448;29;20103;-33
2022/11/24 01:10:14;;;;;;;5.95;1.50;;;17.60;1.00;;;;;;4825511;29;20095;-32
2022/11/24 01:12:41;;;;;;;7.18;1.63;;;17.60;1.00;;;;;;4825285;29;20075;-33
2022/11/24 01:15:08;;;;;;;9.57;2.50;;;17.60;1.00;;;;;;4825320;29;20094;-33
2022/11/24 01:17:35;;;;;;;5.63;1.33;;;17.60;1.00;;;;;;4825415;29;20057;-33
2022/11/24 01:20:03;;;;;;;7.15;1.80;;;17.60;1.00;;;;;;4825408;29;20046;-33
2022/11/24 01:22:30;;;;;;;6.03;1.70;;;17.50;1.00;;;;;;4823994;29;20411;-33
2022/11/24 01:24:57;;;;;;;6.72;1.17;;;17.50;1.00;;;;;;4822149;24;20055;-36
2022/11/24 01:27:23;;;;;;;7.80;1.75;;;17.50;1.00;;;;;;4771092;30;20052;-35
2022/11/24 01:29:50;;;;;;;7.28;1.75;;;17.50;1.00;;;;;;4771297;30;20052;-36
2022/11/24 01:32:17;;;;;;;4.78;1.17;;;17.40;1.00;;;;;;4770948;30;20050;-36
2022/11/24 01:34:44;;;;;;;8.35;1.73;;;17.40;1.00;;;;;;4771025;30;20047;-35
2022/11/24 01:37:10;;;;;;;7.30;2.05;;;17.40;1.00;;;;;;4771210;30;20535;-37
2022/11/24 01:39:37;;;;;;;7.43;2.28;;;17.40;1.00;;;;;;4771245;30;20075;-37
2022/11/24 01:42:04;;;;;;;4.78;1.92;;;17.40;1.00;;;;;;4770994;30;20071;-37
2022/11/24 01:44:31;;;;;;;5.75;1.55;;;17.40;1.00;;;;;;4770848;30;20052;-37
2022/11/24 01:47:19;;;;;;;2.90;1.42;;;17.30;1.00;;;;;;4770940;30;20040;-38
2022/11/24 01:49:50;;;;;;;6.15;1.55;;;17.30;1.00;;;;;;4770970;30;20086;-38
2022/11/24 01:52:23;;;;;;;6.97;1.60;;;17.30;1.00;;;;;;4770625;30;20048;-37
2022/11/24 01:55:08;;;;;;;9.13;1.58;;;17.30;1.00;;;;;;4770970;30;20071;-38
2022/11/24 01:57:45;;;;;;;11.90;1.40;;;17.30;1.00;;;;;;4770907;30;20060;-38
2022/11/24 02:00:13;;;;;;;8.32;1.75;;;17.20;1.00;;;;;;4770810;30;20043;-38
2022/11/24 02:02:41;;;;;;;7.20;1.23;;;17.20;1.00;;;;;;4770612;30;20496;-38
2022/11/24 02:05:20;;;;;;;6.05;1.90;;;17.20;1.00;;;;;;4770702;30;20461;-37
2022/11/24 02:07:47;;;;;;;4.93;1.77;;;17.20;1.00;;;;;;4770721;30;20130;-38
2022/11/24 02:10:15;;;;;;;5.88;1.77;;;17.20;1.00;;;;;;4770535;30;20044;-38
2022/11/24 02:12:49;;;;;;;8.02;1.45;;;17.20;1.00;;;;;;4770505;30;20134;-37
2022/11/24 02:15:16;;;;;;;6.88;1.52;;;17.10;1.00;;;;;;4770478;30;20109;-38
2022/11/24 02:17:43;;;;;;;10.00;2.17;;;17.20;1.00;;;;;;4770509;30;20131;-38
2022/11/24 02:20:12;;;;;;;4.38;1.30;;;17.10;1.00;;;;;;4770490;30;20075;-38
2022/11/24 02:22:51;;;;;;;6.57;2.25;;;17.10;1.00;;;;;;4770188;30;20055;-37
2022/11/24 02:25:38;;;;;;;7.18;1.33;;;17.10;1.00;;;;;;4770225;30;20109;-37
2022/11/24 02:28:10;;;;;;;9.00;1.58;;;17.10;1.00;;;;;;4770398;30;20055;-37
2022/11/24 02:30:37;;;;;;;5.75;1.88;;;17.10;1.00;;;;;;4770278;30;20093;-37
2022/11/24 02:33:03;;;;;;;7.20;1.45;;;17.00;1.00;;;;;;4769624;30;20087;-37
2022/11/24 02:35:30;;;;;;;5.75;1.90;;;17.10;1.00;;;;;;4770166;30;20048;-37
2022/11/24 02:37:57;;;;;;;7.90;1.95;;;17.00;1.00;;;;;;4770147;30;20578;-38
2022/11/24 02:40:27;;;;;;;6.97;1.65;;;17.00;1.00;;;;;;4770170;30;20075;-38
2022/11/24 02:42:57;;;;;;;10.85;1.83;;;17.00;1.00;;;;;;4769866;30;20131;-37
2022/11/24 02:45:26;;;;;;;6.95;1.27;;;17.00;1.00;;;;;;4769766;30;20082;-38
2022/11/24 02:47:52;;;;;;;8.98;1.25;;;16.90;1.00;;;;;;4769891;30;20044;-37
2022/11/24 02:50:19;;;;;;;4.57;1.40;;;16.90;1.00;;;;;;4769952;30;20044;-37
2022/11/24 02:52:46;;;;;;;6.85;1.75;;;16.90;1.00;;;;;;4769581;30;20044;-37
2022/11/24 02:55:13;;;;;;;9.32;1.98;;;16.90;1.00;;;;;;4769858;30;20064;-37
2022/11/24 02:57:40;;;;;;;4.82;1.58;;;16.90;1.00;;;;;;4769727;30;20464;-37
2022/11/24 03:00:08;;;;;;;7.20;1.45;;;16.90;1.00;;;;;;4769650;30;20094;-37
2022/11/24 03:02:35;;;;;;;6.45;1.98;;;16.90;1.00;;;;;;4769364;30;20039;-37
2022/11/24 03:05:02;;;;;;;11.43;2.55;;;16.90;1.00;;;;;;4769644;30;20048;-37
2022/11/24 03:07:28;;;;;;;8.55;2.00;;;16.80;1.00;;;;;;4769659;30;20121;-37
2022/11/24 03:09:55;;;;;;;7.18;2.00;;;16.80;1.00;;;;;;4769622;30;20065;-37
2022/11/24 03:12:22;;;;;;;12.77;3.28;;;16.80;1.00;;;;;;4769278;30;20052;-37
2022/11/24 03:14:49;;;;;;;11.93;1.92;;;16.80;1.00;;;;;;4753512;30;20051;-37
2022/11/24 03:17:15;;;;;;;7.32;1.50;;;16.80;1.00;;;;;;4769489;30;20390;-38
2022/11/24 03:19:42;;;;;;;6.55;2.05;;;16.80;1.00;;;;;;4769552;30;20117;-38
2022/11/24 03:22:11;;;;;;;10.27;1.60;;;16.80;1.00;;;;;;4769358;30;20127;-37
2022/11/24 03:24:38;;;;;;;5.32;1.77;;;16.80;1.00;;;;;;4769115;30;20055;-37
2022/11/24 03:27:05;;;;;;;9.50;1.80;;;16.80;1.00;;;;;;4769191;30;20075;-36
2022/11/24 03:29:32;;;;;;;3.67;1.35;;;16.70;1.00;;;;;;4769430;30;20040;-37
2022/11/24 03:31:58;;;;;;;5.35;2.00;;;16.70;1.00;;;;;;4769358;30;20055;-37
2022/11/24 03:34:25;;;;;;;9.45;2.42;;;16.70;1.00;;;;;;4769019;30;20044;-37
2022/11/24 03:36:52;;;;;;;7.22;2.20;;;16.70;1.00;;;;;;4769302;30;20122;-37
2022/11/24 03:39:19;;;;;;;7.63;1.90;;;16.70;1.00;;;;;;4769220;30;20461;-37
2022/11/24 03:41:45;;;;;;;7.65;1.65;;;16.70;1.00;;;;;;4769028;30;20052;-37
2022/11/24 03:44:12;;;;;;;8.10;1.52;;;16.70;1.00;;;;;;4768787;30;20105;-37
2022/11/24 03:46:39;;;;;;;6.80;1.77;;;16.70;1.00;;;;;;4773849;30;20138;-37
2022/11/24 03:49:06;;;;;;;7.72;1.67;;;16.70;1.00;;;;;;4773414;30;20123;-37
2022/11/24 03:51:32;;;;;;;8.82;1.83;;;16.60;1.00;;;;;;4779495;30;20126;-37
2022/11/24 03:53:59;;;;;;;5.38;2.55;;;16.60;1.00;;;;;;4782248;29;20454;-37
2022/11/24 03:56:26;;;;;;;5.50;2.42;;;16.60;1.00;;;;;;4779219;30;20412;-37
2022/11/24 03:58:53;;;;;;;9.73;2.38;;;16.60;1.00;;;;;;4786839;30;20059;-37
2022/11/24 04:01:20;;;;;;;4.93;1.52;;;16.60;1.00;;;;;;4786813;30;20051;-37
2022/11/24 04:03:47;;;;;;;5.93;1.83;;;16.60;1.00;;;;;;4777837;30;20051;-37
2022/11/24 04:06:14;;;;;;;5.55;1.38;;;16.60;1.00;;;;;;4770354;30;20039;-37
2022/11/24 04:08:40;;;;;;;7.80;1.35;;;16.60;1.00;;;;;;4786729;30;20079;-37
2022/11/24 04:11:07;;;;;;;5.38;1.80;;;16.60;1.00;;;;;;4786709;30;20568;-37
2022/11/24 04:13:34;;;;;;;8.80;1.98;;;16.50;1.00;;;;;;4786475;30;20082;-37
2022/11/24 04:16:04;;;;;;;5.28;1.55;;;16.50;1.00;;;;;;4786681;29;20043;-37
2022/11/24 04:18:31;;;;;;;5.82;1.40;;;16.50;1.00;;;;;;4785323;30;20058;-37
2022/11/24 04:20:58;;;;;;;5.93;1.33;;;16.50;1.00;;;;;;4776816;30;20419;-37
2022/11/24 04:23:25;;;;;;;9.32;1.92;;;16.50;1.00;;;;;;4786382;30;20078;-37
2022/11/24 04:25:51;;;;;;;6.10;1.80;;;16.50;1.00;;;;;;4786315;29;20134;-37
2022/11/24 04:28:18;;;;;;;5.85;1.48;;;16.50;1.00;;;;;;4786638;30;20048;-37
2022/11/24 04:30:44;;;;;;;7.80;1.85;;;16.50;1.00;;;;;;4786610;30;20075;-37
2022/11/24 04:33:12;;;;;;;11.15;1.85;;;16.50;1.00;;;;;;4786361;30;20116;-37
2022/11/24 04:35:38;;;;;;;7.57;1.85;;;16.50;1.00;;;;;;4786499;29;20083;-37
2022/11/24 04:38:05;;;;;;;3.97;1.90;;;16.50;1.00;;;;;;4786577;30;20052;-37
2022/11/24 04:40:32;;;;;;;7.22;3.13;;;16.40;1.00;;;;;;4780499;30;20054;-37
2022/11/24 04:42:58;;;;;;;10.43;2.92;;;16.40;1.00;;;;;;4783947;30;20055;-37
2022/11/24 04:45:25;;;;;;;9.57;1.83;;;16.40;1.00;;;;;;4786380;29;20051;-37
2022/11/24 04:47:52;;;;;;;7.53;1.50;;;16.40;1.00;;;;;;4770525;30;20460;-37
2022/11/24 04:50:19;;;;;;;4.68;1.45;;;16.40;1.00;;;;;;4786173;30;20109;-37
2022/11/24 04:52:46;;;;;;;4.97;1.13;;;16.40;1.00;;;;;;4786146;30;20137;-37
2022/11/24 04:55:13;;;;;;;8.38;2.13;;;16.30;1.00;;;;;;4786201;29;20130;-37
2022/11/24 04:57:40;;;;;;;10.05;2.53;;;16.40;1.00;;;;;;4788842;29;20047;-37
2022/11/24 05:00:08;;;;;;;6.60;1.58;;;16.30;1.00;;;;;;4773902;30;20055;-37
2022/11/24 05:02:36;;;;;;;4.60;1.23;;;16.30;1.00;;;;;;4771550;30;20043;-37
2022/11/24 05:05:04;;;;;;;5.90;0.93;;;16.30;1.00;;;;;;4771594;30;20052;-37
2022/11/24 05:07:31;;;;;;;4.40;1.33;;;16.30;1.00;;;;;;4771753;30;20047;-37
2022/11/24 05:12:43;;;;;;;6.50;1.73;;;16.30;1.00;;;;;;4782873;30;20040;-37
2022/11/24 05:15:16;;;;;;;9.93;1.65;;;16.30;1.00;;;;;;4783809;29;20503;-37
2022/11/24 05:17:43;;;;;;;6.40;1.45;;;16.30;1.00;;;;;;4777987;30;20097;-37
2022/11/24 05:20:10;;;;;;;4.97;1.65;;;16.30;1.00;;;;;;4778519;30;20492;-37
2022/11/24 05:22:37;;;;;;;6.32;1.10;;;16.30;1.00;;;;;;4780057;30;20059;-37
2022/11/24 05:25:04;;;;;;;5.05;1.13;;;16.30;1.00;;;;;;4775443;30;20552;-37
2022/11/24 05:27:30;;;;;;;20.60;1.85;;;16.20;1.00;;;;;;4776739;30;20047;-37
2022/11/24 05:29:57;;;;;;;14.93;1.38;;;16.20;1.00;;;;;;4787029;30;20568;-37
2022/11/24 05:32:24;;;;;;;9.20;1.50;;;16.20;1.00;;;;;;4768859;30;20085;-36
2022/11/24 05:34:52;;;;;;;4.80;1.83;;;16.20;1.00;;;;;;4778515;30;20048;-36
2022/11/24 05:37:20;;;;;;;8.73;1.25;;;16.20;1.00;;;;;;4753315;30;20056;-36
2022/11/24 05:39:47;;;;;;;7.72;1.45;;;16.20;1.00;;;;;;4753319;30;20056;-36
2022/11/24 05:44:59;;;;;;;4.68;1.10;;;16.20;1.00;;;;;;4785565;29;20112;-36
2022/11/24 05:47:26;;;;;;;7.53;1.45;;;16.20;1.00;;;;;;4787602;30;20043;-37
2022/11/24 05:49:52;;;;;;;5.10;1.33;;;16.20;1.00;;;;;;4787656;30;20112;-37
2022/11/24 05:52:19;;;;;;;6.72;1.63;;;16.20;1.00;;;;;;4787372;30;20127;-37
2022/11/24 05:54:46;;;;;;;4.30;1.27;;;16.10;1.00;;;;;;4787146;29;20047;-37
2022/11/24 05:57:13;;;;;;;5.00;2.03;;;16.10;1.00;;;;;;4787720;30;20454;-37
2022/11/24 05:59:40;;;;;;;4.43;1.50;;;16.20;1.00;;;;;;4784710;30;20039;-37
2022/11/24 06:02:06;;;;;;;3.58;1.30;;;16.10;1.00;;;;;;4770712;30;20052;-37
2022/11/24 06:04:33;;;;;;;13.07;1.73;;;16.10;1.00;;;;;;4768805;30;20058;-37
2022/11/24 06:07:00;;;;;;;6.82;1.52;;;16.10;1.00;;;;;;4776006;30;20083;-37
2022/11/24 06:09:27;;;;;;;6.43;1.27;;;16.10;1.00;;;;;;4780502;30;20547;-37
2022/11/24 06:11:54;;;;;;;4.13;0.98;;;16.10;1.00;;;;;;4788636;30;20408;-36
2022/11/24 06:14:21;;;;;;;15.60;1.65;;;16.10;1.00;;;;;;4788141;29;20043;-36
2022/11/24 06:16:48;;;;;;;7.80;1.30;;;16.10;1.00;;;;;;4772534;30;20476;-36
2022/11/24 06:19:15;;;;;;;11.45;2.78;;;16.10;1.00;;;;;;4788413;30;20086;-36
2022/11/24 06:21:41;;;;;;;7.65;1.40;;;16.10;1.00;;;;;;4788308;30;20081;-36
2022/11/24 06:24:08;;;;;;;6.50;1.20;;;16.00;1.00;;;;;;4787608;29;20496;-37
2022/11/24 06:26:35;;;;;;;5.40;1.38;;;16.10;1.00;;;;;;4788138;30;20051;-36
2022/11/24 06:29:02;;;;;;;7.93;1.40;;;16.10;1.00;;;;;;4788289;30;20044;-36
2022/11/24 06:31:28;;;;;;;8.90;1.92;;;16.10;1.00;;;;;;4788141;30;20122;-36
2022/11/24 06:33:55;;;;;;;6.55;1.08;;;16.00;1.00;;;;;;4787804;30;20051;-36
2022/11/24 06:36:22;;;;;;;5.22;1.40;;;16.00;1.00;;;;;;4788113;30;20134;-36
2022/11/24 06:38:48;;;;;;;3.75;0.90;;;16.00;1.00;;;;;;4787875;30;20043;-36
2022/11/24 06:41:16;;;;;;;4.10;1.13;;;16.00;1.00;;;;;;4776164;30;20047;-36
2022/11/24 06:43:44;;;;;;;6.15;1.15;;;16.00;1.00;;;;;;4769856;30;20058;-36
2022/11/24 06:46:11;;;;;;;5.35;1.35;;;16.00;1.00;;;;;;4769841;30;20090;-36
2022/11/24 06:48:38;;;;;;;8.20;1.38;;;16.00;1.00;;;;;;4770042;30;20101;-36
2022/11/24 06:51:07;;;;;;;5.30;1.23;;;16.00;1.00;;;;;;4769859;30;20130;-36
2022/11/24 06:53:36;;;;;;;6.07;1.38;;;16.00;1.00;;;;;;4769591;30;20056;-36
2022/11/24 06:56:11;;;;;;;4.65;0.90;;;16.00;1.00;;;;;;4769760;30;20040;-36
2022/11/24 06:58:47;;;;;;;4.35;1.13;;;16.00;1.00;;;;;;4770025;30;20444;-36
2022/11/24 07:01:18;;;;;;;9.05;1.70;;;16.00;1.00;;;;;;4769807;30;20047;-36
2022/11/24 07:03:47;;;;;;;3.03;0.70;;;15.90;1.00;;;;;;4769465;30;20047;-36
2022/11/24 07:06:14;;;;;;;9.23;1.35;;;15.90;1.00;;;;;;4769585;30;20051;-36
2022/11/24 07:08:41;;;;;;;6.47;0.93;;;15.90;1.00;;;;;;4769495;30;20059;-36
2022/11/24 07:11:11;;;;;;;7.43;1.23;;;15.90;1.00;;;;;;4769512;30;20054;-36
2022/11/24 07:13:37;;;;;;;5.70;1.13;;;15.90;1.00;;;;;;4769368;30;20551;-36
2022/11/24 07:16:31;;;;;;;5.38;1.38;;;15.90;1.00;;;;;;4769397;30;20048;-37
2022/11/24 07:18:58;;;;;;;10.30;1.30;;;15.90;1.00;;;;;;4767306;30;20138;-37
2022/11/24 07:21:26;;;;;;;5.88;1.73;;;15.90;1.00;;;;;;4769339;30;20048;-37
2022/11/24 07:23:55;;;;;;;6.03;1.10;;;15.90;1.00;;;;;;4767816;30;20048;-37
2022/11/24 07:26:22;;;;;;;4.10;1.38;;;15.90;1.00;;;;;;4762470;30;20048;-37
2022/11/24 07:28:49;;;;;;;4.20;1.17;;;15.80;1.00;;;;;;4765054;30;20466;-37
2022/11/24 07:31:19;;;;;;;6.05;1.58;;;15.80;1.00;;;;;;4763015;30;20083;-36
2022/11/24 07:33:53;;;;;;;4.15;0.85;;;15.80;1.00;;;;;;4769090;30;20464;-36
2022/11/24 07:36:21;;;;;;;6.90;1.65;;;15.80;1.00;;;;;;4753054;30;20078;-36
2022/11/24 07:38:48;;;;;;;4.70;1.05;;;15.80;1.00;;;;;;4769200;30;20126;-36
2022/11/24 07:41:18;;;;;;;4.25;1.17;;;15.80;1.00;;;;;;4768843;30;20109;-36
2022/11/24 07:43:46;;;;;;;6.03;1.63;;;15.80;1.00;;;;;;4768803;30;20056;-36
2022/11/24 07:46:15;;;;;;;3.00;0.90;;;15.80;1.00;;;;;;4768929;30;20043;-36
2022/11/24 07:48:41;;;;;;;6.32;1.33;;;15.80;1.00;;;;;;4769085;30;20047;-36
2022/11/24 07:51:08;;;;;;;5.50;0.90;;;15.80;1.00;;;;;;4768853;30;20130;-36
2022/11/24 07:53:36;;;;;;;2.88;0.82;;;15.80;1.00;;;;;;4768836;30;20048;-36
2022/11/24 07:56:05;;;;;;;7.40;1.33;;;15.80;1.00;;;;;;4768955;30;20059;-36
2022/11/24 07:58:34;;;;;;;4.85;1.17;;;15.80;1.00;;;;;;4769079;30;20095;-36
2022/11/24 08:01:13;;;;;;;7.68;1.40;;;15.80;1.00;;;;;;4768922;30;20052;-36
2022/11/24 08:03:41;;;;;;;5.45;1.13;;;15.80;1.00;;;;;;4768783;30;20063;-36
2022/11/24 08:06:08;;;;;;;4.55;1.33;;;15.80;1.00;;;;;;4768742;30;20470;-36
2022/11/24 08:08:56;;;;;;;4.10;0.68;;;15.80;1.00;;;;;;4755882;30;20062;-36
2022/11/24 08:11:23;;;;;;;4.97;1.02;;;15.80;1.00;;;;;;4768885;30;20454;-37
2022/11/24 08:13:50;;;;;;;7.65;1.17;;;15.70;1.00;;;;;;4768553;30;20139;-36
2022/11/24 08:16:18;;;;;;;3.67;1.02;;;15.70;1.00;;;;;;4752854;30;20097;-36
2022/11/24 08:18:49;;;;;;;6.63;1.13;;;15.70;1.00;;;;;;4768786;30;20071;-36
2022/11/24 08:21:16;;;;;;;4.57;0.80;;;15.70;1.00;;;;;;4768663;30;20064;-36
2022/11/24 08:23:43;;;;;;;3.38;1.30;;;15.70;1.00;;;;;;4768598;30;20051;-36
2022/11/24 08:26:14;;;;;;;7.47;1.40;;;15.70;1.00;;;;;;4768574;30;20504;-36
2022/11/24 08:28:42;;;;;;;6.00;1.23;;;15.70;1.00;;;;;;4768805;30;20101;-36
2022/11/24 08:31:15;;;;;;;4.93;0.75;;;15.70;1.00;;;;;;4769018;30;20394;-36
2022/11/24 08:33:42;;;;;;;6.53;1.20;;;15.70;1.00;;;;;;4772186;30;20040;-36
2022/11/24 08:36:11;;;;;;;4.75;1.58;;;15.70;1.00;;;;;;4756134;30;20053;-36
2022/11/24 08:38:38;;;;;;;5.82;1.27;;;15.70;1.00;;;;;;4772219;30;20135;-36
2022/11/24 08:41:08;;;;;;;5.70;1.52;;;15.70;1.00;;;;;;4811758;24;20061;-35
2022/11/24 08:43:35;;;;;;;2.65;0.85;;;15.70;1.00;;;;;;4825215;29;20058;-35
2022/11/24 08:46:05;;;;;;;5.00;1.15;;;15.70;1.00;;;;;;4825903;29;20110;-35
2022/11/24 08:48:33;;;;;;;2.40;0.70;;;15.70;1.00;;;;;;4825851;29;20057;-35
2022/11/24 08:51:06;;;;;;;6.78;0.77;;;15.70;1.00;;;;;;4825891;29;20042;-35
2022/11/24 08:53:33;;;;;;;2.70;0.68;;;15.70;1.00;;;;;;4825597;29;20538;-35
2022/11/24 08:56:00;;;;;;;2.78;0.95;;;15.70;1.00;;;;;;4825789;29;20499;-36
2022/11/24 08:58:28;;;;;;;4.40;0.47;;;15.70;1.00;;;;;;4824456;29;20058;-35
2022/11/24 09:00:55;;;;;;;5.88;0.70;;;15.70;1.00;;;;;;4825724;29;20042;-35
2022/11/24 09:03:22;;;;;;;3.50;1.13;;;15.70;1.00;;;;;;4825428;29;20046;-35
2022/11/24 09:05:48;;;;;;;6.72;0.98;;;15.70;1.00;;;;;;4825683;29;20089;-36
2022/11/24 09:08:19;;;;;;;3.53;1.00;;;15.70;1.00;;;;;;4825646;29;20231;-35
2022/11/24 09:10:46;;;;;;;6.38;1.15;;;15.70;1.00;;;;;;4825569;29;20057;-35
2022/11/24 09:13:13;;;;;;;2.38;0.73;;;15.70;1.00;;;;;;4824046;29;20050;-36
2022/11/24 09:15:39;;;;;;;3.50;0.77;;;15.80;1.00;;;;;;4825441;29;20129;-35
2022/11/24 09:18:06;;;;;;;2.42;0.70;;;15.80;1.00;;;;;;4825458;29;20107;-36
2022/11/24 09:20:33;;;;;;;4.22;0.98;;;15.80;1.00;;;;;;4825336;29;20088;-35
2022/11/24 09:23:00;;;;;;;8.40;1.02;;;15.80;1.00;;;;;;4825005;29;20129;-35
2022/11/24 09:25:26;;;;;;;1.88;0.75;;;15.80;1.00;;;;;;4825340;29;20043;-35
2022/11/24 09:27:53;;;;;;;3.05;0.80;;;15.80;1.00;;;;;;4825167;29;20043;-35
2022/11/24 09:30:22;;;;;;;4.63;0.88;;;15.80;1.00;;;;;;4825211;29;20049;-35
2022/11/24 09:32:48;;;;;;;4.35;0.68;;;15.80;1.00;;;;;;4825021;29;20047;-35
2022/11/24 09:35:15;;;;;;;3.30;0.85;;;15.80;1.00;;;;;;4825277;29;20110;-35
2022/11/24 09:37:44;;;;;;;3.33;0.55;;;15.80;1.00;;;;;;4825148;29;20609;-35
2022/11/24 09:40:14;;;;;;;2.35;1.10;;;15.80;1.00;;;;;;4824790;29;20046;-35
2022/11/24 09:43:07;;;;;;;4.93;1.13;;;15.90;1.00;;;;;;4822866;29;20077;-35
2022/11/24 09:45:42;;;;;;;3.87;1.27;;;15.80;1.00;;;;;;4823937;29;20077;-35
2022/11/24 09:48:40;;;;;;;5.78;0.95;;;15.90;1.00;;;;;;4825128;29;20317;-35
2022/11/24 09:51:10;;;;;;;3.90;0.70;;;15.90;1.00;;;;;;4824726;29;20506;-35
2022/11/24 09:53:40;;;;;;;5.07;0.90;;;15.90;1.00;;;;;;4824626;29;20555;-36
2022/11/24 09:56:26;;;;;;;2.53;0.70;;;15.90;1.00;;;;;;4824759;29;20047;-35
2022/11/24 09:59:09;;;;;;;4.05;0.68;;;15.90;1.00;;;;;;4824874;29;20110;-35
2022/11/24 10:01:40;;;;;;;3.55;0.88;;;15.90;1.00;;;;;;4824530;29;20051;-35
2022/11/24 10:04:39;;;;;;;2.88;0.80;;;15.90;1.00;;;;;;4824390;29;20084;-35
2022/11/24 10:07:27;;;;;;;4.60;1.10;;;15.90;1.00;;;;;;4824566;29;20054;-35
2022/11/24 10:10:13;;;;;;;2.47;0.82;;;16.00;1.00;;;;;;4824624;29;20081;-36
2022/11/24 10:12:52;;;;;;;5.95;0.95;;;16.00;1.00;;;;;;4824455;29;20051;-35
2022/11/24 10:15:55;;;;;;;5.65;1.00;;;16.00;1.00;;;;;;4823386;29;20479;-36
2022/11/24 10:18:25;;;;;;;3.55;0.82;;;16.00;1.00;;;;;;4824562;29;20049;-35
2022/11/24 10:21:29;;;;;;;1.85;0.95;;;16.00;1.00;;;;;;4824483;29;20503;-36
2022/11/24 10:24:28;;;;;;;3.55;0.85;;;16.00;1.00;;;;;;4824239;29;20460;-36
2022/11/24 10:27:08;;;;;;;2.60;0.77;;;16.10;1.00;;;;;;4824310;29;20056;-35
2022/11/24 10:29:40;;;;;;;3.10;0.88;;;16.00;1.00;;;;;;4824328;29;20056;-36
2022/11/24 10:32:18;;;;;;;3.00;0.88;;;16.10;1.00;;;;;;4824193;29;20069;-35
2022/11/24 10:34:50;;;;;;;2.55;0.60;;;16.10;1.00;;;;;;4824164;29;20051;-35
2022/11/24 10:37:44;;;;;;;3.80;0.68;;;16.10;1.00;;;;;;4824213;29;20051;-35
2022/11/24 10:40:19;;;;;;;;;;;16.10;1.00;;;;;;4824434;29;20166;-35
2022/11/24 10:43:09;;;;;;;2.33;0.55;;;16.10;1.00;;;;;;4823770;29;19960;-35
2022/11/24 10:45:38;;;;;;;2.50;1.48;;;16.10;1.00;;;;;;4824231;29;20070;-35
2022/11/24 10:48:16;;;;;;;2.13;0.57;;;16.10;1.00;;;;;;4822982;29;20050;-35
2022/11/24 10:50:43;;;;;;;3.60;0.80;;;16.10;1.00;;;;;;4822848;29;20053;-35
2022/11/24 10:53:15;;;;;;;2.53;0.52;;;16.20;1.00;;;;;;4822483;29;20495;-35
2022/11/24 10:55:54;;;;;;;3.78;1.13;;;16.20;1.00;;;;;;4823778;29;20499;-35
2022/11/24 10:58:25;;;;;;;5.20;0.82;;;16.20;1.00;;;;;;4824106;29;20046;-35
2022/11/24 11:00:53;;;;;;;6.65;1.33;;;16.20;1.00;;;;;;4823819;29;20055;-35
2022/11/24 11:03:22;;;;;;;4.90;1.23;;;16.20;1.00;;;;;;4823534;29;20129;-38
2022/11/24 11:06:01;;;;;;;4.72;1.30;;;16.20;1.00;;;;;;4823874;29;20538;-35
2022/11/24 11:08:32;;;;;;;3.47;0.77;;;16.20;1.00;;;;;;4823773;29;20490;-35
2022/11/24 11:11:29;;;;;;;2.08;0.73;;;16.20;1.00;;;;;;4823910;29;20125;-35
2022/11/24 11:14:01;;;;;;;4.05;0.70;;;16.20;1.00;;;;;;4823510;29;20562;-35
2022/11/24 11:16:51;;;;;;;3.50;0.85;;;16.20;1.00;;;;;;4822167;29;20061;-35
2022/11/24 11:19:41;;;;;;;2.38;1.40;;;16.20;1.00;;;;;;4823630;29;20074;-35
2022/11/24 11:22:35;;;;;;;7.05;0.70;;;16.20;1.00;;;;;;4821901;29;20054;-35
2022/11/24 11:25:08;;;;;;;4.43;0.90;;;16.20;1.00;;;;;;4823731;29;20054;-35
2022/11/24 11:27:36;;;;;;;2.35;0.55;;;16.20;1.00;;;;;;4823369;29;20491;-35
2022/11/24 11:30:23;;;;;;;3.78;0.80;;;16.20;1.00;;;;;;4823519;29;20046;-36
2022/11/24 11:33:24;;;;;;;4.65;1.35;;;16.20;1.00;;;;;;4823050;29;20046;-35
2022/11/24 11:36:12;;;;;;;3.67;1.17;;;16.20;1.00;;;;;;4823282;29;20499;-35
2022/11/24 11:38:40;;;;;;;4.10;0.90;;;16.20;1.00;;;;;;4823488;29;20057;-35
2022/11/24 11:41:17;;;;;;;2.42;1.05;;;16.20;1.00;;;;;;4823125;29;20050;-35
2022/11/24 11:43:46;;;;;;;5.93;1.92;;;16.20;1.00;;;;;;4823175;29;20583;-35
2022/11/24 11:46:16;;;;;;;4.95;0.85;;;16.20;1.00;;;;;;4823206;29;20110;-35
2022/11/24 11:48:45;;;;;;;5.43;1.20;;;16.20;1.00;;;;;;4823107;29;20145;-35
2022/11/24 11:51:25;;;;;;;4.53;0.77;;;16.20;1.00;;;;;;4823099;29;20417;-35
2022/11/24 11:54:01;;;;;;;4.75;0.85;;;16.20;1.00;;;;;;4822898;29;20050;-35
2022/11/24 11:56:46;;;;;;;4.15;0.60;;;16.20;1.00;;;;;;4823247;29;20074;-35
2022/11/24 12:00:08;;;;;;;3.58;0.80;;;16.20;1.00;;;;;;4823205;29;20054;-35
2022/11/24 12:03:27;;;;;;;6.68;0.93;;;16.20;1.00;;;;;;4814997;29;20145;-35
2022/11/24 12:06:09;;;;;;;2.28;0.88;;;16.20;1.00;;;;;;4822386;29;20047;-35
2022/11/24 12:08:56;;;;;;;5.25;1.05;;;16.20;1.00;;;;;;4822461;29;20103;-35
2022/11/24 12:12:04;;;;;;;3.22;0.93;;;16.20;1.00;;;;;;4822969;29;20470;-35
2022/11/24 12:15:10;;;;;;;2.47;0.60;;;16.20;1.00;;;;;;4822729;29;20111;-35
2022/11/24 12:17:47;;;;;;;8.35;1.00;;;16.20;1.00;;;;;;4822970;29;20117;-35
2022/11/24 12:20:35;;;;;;;2.20;0.60;;;16.20;1.00;;;;;;4822922;29;20058;-35
2022/11/24 12:23:15;;;;;;;3.25;0.50;;;16.20;1.00;;;;;;4822616;29;20103;-35
2022/11/24 12:25:53;;;;;;;4.13;1.00;;;16.20;1.00;;;;;;4822796;29;20126;-35
2022/11/24 12:28:49;;;;;;;3.28;1.20;;;16.20;1.00;;;;;;4822697;29;20053;-35
2022/11/24 12:31:36;;;;;;;3.83;0.60;;;16.10;1.00;;;;;;4804523;29;20177;-35
2022/11/24 12:34:03;;;;;;;3.22;1.20;;;16.20;1.00;;;;;;4822701;29;20076;-36
2022/11/24 12:37:14;;;;;;;2.55;1.17;;;16.10;1.00;;;;;;4822789;29;20122;-35
2022/11/24 12:39:54;;;;;;;5.05;1.10;;;16.10;1.00;;;;;;4814914;29;20058;-35
2022/11/24 12:42:37;;;;;;;7.85;1.30;;;16.20;1.00;;;;;;4822431;29;20042;-35
2022/11/24 12:45:32;;;;;;;1.70;0.85;;;16.20;1.00;;;;;;4822667;29;20051;-35
2022/11/24 12:48:19;;;;;;;5.40;0.73;;;16.10;1.00;;;;;;4813384;29;20070;-35
2022/11/24 12:50:47;;;;;;;6.00;0.68;;;16.10;1.00;;;;;;4821413;29;20145;-35
2022/11/24 12:53:27;;;;;;;2.40;0.90;;;16.10;1.00;;;;;;4822374;29;20049;-35
2022/11/24 12:55:59;;;;;;;5.35;1.15;;;16.10;1.00;;;;;;4822603;29;20110;-35
2022/11/24 12:58:40;;;;;;;2.38;1.02;;;16.20;1.00;;;;;;4822669;29;20067;-35
2022/11/24 13:01:15;;;;;;;2.33;0.85;;;16.10;1.00;;;;;;4822668;29;20066;-35
2022/11/24 13:04:15;;;;;;;13.30;2.88;;;16.10;1.00;;;;;;4820992;29;20089;-35
2022/11/24 13:06:52;;;;;;;4.85;0.93;;;16.10;1.00;;;;;;4822548;29;20058;-35
2022/11/24 13:09:18;;;;;;;7.50;1.08;;;16.10;1.00;;;;;;4822462;29;20054;-36
2022/11/24 13:11:53;;;;;;;2.97;0.65;;;16.10;1.00;;;;;;4822225;29;20047;-36
2022/11/24 13:14:32;;;;;;;5.03;1.05;;;16.10;1.00;;;;;;4822045;29;20225;-35
2022/11/24 13:17:02;;;;;;;;;;;16.10;1.00;;;;;;4823320;29;20475;-35
2022/11/24 13:19:49;;;;;;;3.90;0.65;;;16.10;1.00;;;;;;4825584;29;19924;-36
2022/11/24 13:22:23;;;;;;;4.13;0.80;;;16.10;1.00;;;;;;4825135;29;20050;-36
2022/11/24 13:25:13;;;;;;;3.70;1.20;;;16.10;1.00;;;;;;4825482;29;20519;-36
2022/11/24 13:27:43;;;;;;;4.55;1.33;;;16.10;1.00;;;;;;4825377;29;20410;-36